aviador You're here:

KLSF Decoded Metar

FORT BENNING in GA, USA
Report Time2017-08-19 11:08:00
UTC Time2017-08-19 11:11:31
Flight Rules ifr IFR
WindCalm
Visibility2414 m
Phenomena:Mist
Clouds:N/A
CeilingNone
Temp20°C (ISA +5)
Dew Point20°C (100% RH)
QNH1015 hPa
Density Alt1,115 ft
Elevation233 ft
Report Wrong Elevation
Raw Report
KLSF 191108Z AUTO 00000KT 1 1/2SM BR CLR 20/20 A2998 RMK AO2 VIS 1
1/2V5 SLP155=

Extra information for KLSF:More info

Metar Taf Metar & Taf Last 4 Metars F.Rules Stats Wind Profile Meteogram Temp Stats Airport Information Weather charts Add Link Nearby VenuesMetar ALERT Operation Metar Decoded Social comments

AIRNAV info for KLSF